createdAt,value
2018-09-18T00:01:05.695Z,51.93
2018-09-18T00:04:09.171Z,51.88
2018-09-18T00:07:13.193Z,51.96
2018-09-18T00:10:16.714Z,52.32
2018-09-18T00:13:20.375Z,52.70
2018-09-18T00:16:23.831Z,52.38
2018-09-18T00:19:27.285Z,52.60
2018-09-18T00:22:30.920Z,51.87
2018-09-18T00:25:34.394Z,51.98
2018-09-18T00:28:37.822Z,52.61
2018-09-18T00:31:42.095Z,51.90
2018-09-18T00:34:45.423Z,51.54
2018-09-18T00:37:48.843Z,51.88
2018-09-18T00:40:52.330Z,51.81
2018-09-18T00:43:56.087Z,51.45
2018-09-18T00:47:00.841Z,51.83
2018-09-18T00:50:04.391Z,51.41
2018-09-18T00:53:07.839Z,52.05
2018-09-18T00:56:11.972Z,52.32
2018-09-18T00:59:15.417Z,51.02
2018-09-18T01:02:18.845Z,51.91
2018-09-18T01:05:22.209Z,51.56
2018-09-18T01:08:25.705Z,52.47
2018-09-18T01:11:29.105Z,51.54
2018-09-18T01:14:33.721Z,52.25
2018-09-18T01:17:37.336Z,52.59
2018-09-18T01:20:40.806Z,52.16
2018-09-18T01:23:44.261Z,51.58
2018-09-18T01:26:47.634Z,52.36
2018-09-18T01:29:51.057Z,52.04
2018-09-18T01:32:54.467Z,51.58
2018-09-18T01:35:57.834Z,52.12
2018-09-18T01:39:01.235Z,51.85
2018-09-18T01:42:04.671Z,52.22
2018-09-18T01:45:08.089Z,51.70
2018-09-18T01:48:11.463Z,52.14
2018-09-18T01:51:14.840Z,52.11
2018-09-18T01:54:18.696Z,51.91
2018-09-18T01:57:22.218Z,52.46
2018-09-18T02:00:25.673Z,52.70
2018-09-18T02:03:29.288Z,52.73
2018-09-18T02:06:32.781Z,52.52
2018-09-18T02:09:36.279Z,52.80
2018-09-18T02:12:40.290Z,53.19
2018-09-18T02:15:43.776Z,53.65
2018-09-18T02:18:47.302Z,53.32
2018-09-18T02:21:50.804Z,54.06
2018-09-18T02:24:54.435Z,53.44
2018-09-18T02:27:57.907Z,54.30
2018-09-18T02:31:01.492Z,53.98
2018-09-18T02:34:05.030Z,54.25
2018-09-18T02:37:08.512Z,53.78
2018-09-18T02:40:12.063Z,54.17
2018-09-18T02:43:15.525Z,53.73
2018-09-18T02:46:19.233Z,53.25
2018-09-18T02:49:22.724Z,53.77
2018-09-18T02:52:26.232Z,53.71
2018-09-18T02:55:29.745Z,54.40
2018-09-18T02:58:33.236Z,54.06
2018-09-18T03:01:36.974Z,54.44
2018-09-18T03:04:40.451Z,54.62
2018-09-18T03:07:43.948Z,54.12
2018-09-18T03:10:47.459Z,54.33
2018-09-18T03:13:50.967Z,55.19
2018-09-18T03:16:54.453Z,55.31
2018-09-18T03:19:57.965Z,54.51
2018-09-18T03:23:01.452Z,54.99
2018-09-18T03:26:04.974Z,55.27
2018-09-18T03:29:08.473Z,55.08
2018-09-18T03:32:11.966Z,55.23
2018-09-18T03:35:15.454Z,54.79
2018-09-18T03:38:18.881Z,55.38
2018-09-18T03:41:22.431Z,55.57
2018-09-18T03:44:25.960Z,55.60
2018-09-18T03:47:29.474Z,55.61
2018-09-18T03:50:33.005Z,55.23
2018-09-18T03:53:36.499Z,55.05
2018-09-18T03:56:40.161Z,55.97
2018-09-18T03:59:43.617Z,56.67
2018-09-18T04:02:47.110Z,56.47
2018-09-18T04:05:51.225Z,56.58
2018-09-18T04:08:54.735Z,57.24
2018-09-18T04:11:58.210Z,57.13
2018-09-18T04:15:01.919Z,56.59
2018-09-18T04:18:05.415Z,57.28
2018-09-18T04:21:09.009Z,57.53
2018-09-18T04:24:12.519Z,58.00
2018-09-18T04:27:15.936Z,58.17
2018-09-18T04:30:19.603Z,57.23
2018-09-18T04:33:23.028Z,57.33
2018-09-18T04:36:26.632Z,57.49
2018-09-18T04:39:30.051Z,57.73
2018-09-18T04:42:33.536Z,58.29
2018-09-18T04:45:37.080Z,58.48
2018-09-18T04:48:40.538Z,58.38
2018-09-18T04:51:44.046Z,58.62
2018-09-18T04:54:47.537Z,58.66
2018-09-18T04:57:51.084Z,57.73
2018-09-18T05:00:54.661Z,58.75
2018-09-18T05:03:58.057Z,58.81
2018-09-18T05:07:01.505Z,58.47
2018-09-18T05:10:05.346Z,58.62
2018-09-18T05:13:08.972Z,58.95
2018-09-18T05:16:12.383Z,58.77
2018-09-18T05:19:15.804Z,58.54
2018-09-18T05:22:19.270Z,58.00
2018-09-18T05:25:22.782Z,58.69
2018-09-18T05:28:26.224Z,58.46
2018-09-18T05:31:29.754Z,58.58
2018-09-18T05:34:33.480Z,58.77
2018-09-18T05:37:36.946Z,58.49
2018-09-18T05:40:40.716Z,58.34
2018-09-18T05:43:44.093Z,58.63
2018-09-18T05:46:47.727Z,59.15
2018-09-18T05:49:51.136Z,59.38
2018-09-18T05:52:54.484Z,59.15
2018-09-18T05:55:57.897Z,58.92
2018-09-18T05:59:01.307Z,58.92
2018-09-18T06:02:04.827Z,59.17
2018-09-18T06:05:08.563Z,59.03
2018-09-18T06:08:12.015Z,58.98
2018-09-18T06:11:16.431Z,59.01
2018-09-18T06:14:19.847Z,58.11
2018-09-18T06:17:23.277Z,58.45
2018-09-18T06:20:26.724Z,57.89
2018-09-18T06:23:30.148Z,57.91
2018-09-18T06:26:33.547Z,57.89
2018-09-18T06:29:38.119Z,57.41
2018-09-18T06:32:41.596Z,56.92
2018-09-18T06:35:45.140Z,56.77
2018-09-18T06:38:50.784Z,56.58
2018-09-18T06:41:55.261Z,56.38
2018-09-18T06:44:58.687Z,56.17
2018-09-18T06:48:02.261Z,55.78
2018-09-18T06:51:05.672Z,55.31
2018-09-18T06:54:09.104Z,55.35
2018-09-18T06:57:12.653Z,55.04
2018-09-18T07:00:16.060Z,54.77
2018-09-18T07:03:19.454Z,54.50
2018-09-18T07:06:23.158Z,54.37
2018-09-18T07:09:26.721Z,53.73
2018-09-18T07:12:30.085Z,53.64
2018-09-18T07:15:33.463Z,53.08
2018-09-18T07:18:36.857Z,52.41
2018-09-18T07:21:40.264Z,52.37
2018-09-18T07:24:43.793Z,51.67
2018-09-18T07:27:47.294Z,51.18
2018-09-18T07:30:50.787Z,50.61
2018-09-18T07:33:54.378Z,50.25
2018-09-18T07:36:57.760Z,49.85
2018-09-18T07:40:01.283Z,50.01
2018-09-18T07:43:05.410Z,50.12
2018-09-18T07:46:08.955Z,49.97
2018-09-18T07:49:12.507Z,49.44
2018-09-18T07:52:16.238Z,49.28
2018-09-18T07:55:19.722Z,48.96
2018-09-18T07:58:23.231Z,48.63
2018-09-18T08:01:26.885Z,48.94
2018-09-18T08:04:30.336Z,48.42
2018-09-18T08:07:33.831Z,48.09
2018-09-18T08:10:37.329Z,48.10
2018-09-18T08:13:40.942Z,48.30
2018-09-18T08:16:44.420Z,47.47
2018-09-18T08:19:48.205Z,47.83
2018-09-18T08:22:51.904Z,47.17
2018-09-18T08:25:55.374Z,46.81
2018-09-18T08:28:59.288Z,47.09
2018-09-18T08:32:02.787Z,47.43
2018-09-18T08:35:06.498Z,46.92
2018-09-18T08:38:09.969Z,46.51
2018-09-18T08:41:13.575Z,46.48
2018-09-18T08:44:17.326Z,46.23
2018-09-18T08:47:20.779Z,45.03
2018-09-18T08:50:24.282Z,45.63
2018-09-18T08:53:28.039Z,45.28
2018-09-18T08:56:32.098Z,45.40
2018-09-18T08:59:35.637Z,45.36
2018-09-18T09:02:39.176Z,44.84
2018-09-18T09:05:42.617Z,44.13
2018-09-18T09:08:46.316Z,43.32
2018-09-18T09:11:49.747Z,43.23
2018-09-18T09:14:53.289Z,43.31
2018-09-18T09:17:56.834Z,43.10
2018-09-18T09:21:01.335Z,42.83
2018-09-18T09:24:04.857Z,43.03
2018-09-18T09:27:08.418Z,43.19
2018-09-18T09:30:12.097Z,42.75
2018-09-18T09:33:15.576Z,42.47
2018-09-18T09:36:19.046Z,42.35
2018-09-18T09:39:22.561Z,41.61
2018-09-18T09:42:26.960Z,40.91
2018-09-18T09:45:30.433Z,41.97
2018-09-18T09:48:35.422Z,41.38
2018-09-18T09:51:39.756Z,42.20
2018-09-18T09:54:43.164Z,40.99
2018-09-18T09:57:46.670Z,40.46
2018-09-18T10:00:55.462Z,40.34
2018-09-18T10:03:59.673Z,39.72
2018-09-18T10:07:03.107Z,39.80
2018-09-18T10:10:07.145Z,39.84
2018-09-18T10:13:10.666Z,39.87
2018-09-18T10:16:14.197Z,39.50
2018-09-18T10:19:17.716Z,39.60
2018-09-18T10:22:21.138Z,39.89
2018-09-18T10:25:24.694Z,39.05
2018-09-18T10:28:28.196Z,38.46
2018-09-18T10:31:32.063Z,39.04
2018-09-18T10:34:35.543Z,39.25
2018-09-18T10:37:39.025Z,39.15
2018-09-18T10:40:42.893Z,39.17
2018-09-18T10:43:46.747Z,38.52
2018-09-18T10:46:50.201Z,37.88
2018-09-18T10:49:53.696Z,38.30
2018-09-18T10:52:57.089Z,37.81
2018-09-18T10:56:00.469Z,37.44
2018-09-18T10:59:04.004Z,37.10
2018-09-18T11:02:07.787Z,37.02
2018-09-18T11:05:11.213Z,36.48
2018-09-18T11:08:14.789Z,37.12
2018-09-18T11:11:18.683Z,37.08
2018-09-18T11:14:22.421Z,36.74
2018-09-18T11:17:25.627Z,37.14
2018-09-18T11:20:29.067Z,36.71
2018-09-18T11:23:32.615Z,36.67
2018-09-18T11:26:36.449Z,36.74
2018-09-18T11:29:39.849Z,36.75
2018-09-18T11:32:43.304Z,35.83
2018-09-18T11:35:46.746Z,35.90
2018-09-18T11:38:50.307Z,35.94
2018-09-18T11:41:53.717Z,36.82
2018-09-18T11:44:57.185Z,36.43
2018-09-18T11:48:00.668Z,35.48
2018-09-18T11:51:04.176Z,35.89
2018-09-18T11:54:08.358Z,36.37
2018-09-18T11:57:13.660Z,36.44
2018-09-18T12:00:17.377Z,36.09
2018-09-18T12:03:20.917Z,35.40
2018-09-18T12:06:24.732Z,35.21
2018-09-18T12:09:28.127Z,35.70
2018-09-18T12:12:32.122Z,35.63
2018-09-18T12:15:35.557Z,36.03
2018-09-18T12:18:38.986Z,36.19
2018-09-18T12:21:42.437Z,36.47
2018-09-18T12:24:46.103Z,36.21
2018-09-18T12:27:50.650Z,36.28
2018-09-18T12:30:53.961Z,35.89
2018-09-18T12:33:58.498Z,35.71
2018-09-18T12:37:02.385Z,35.69
2018-09-18T12:40:05.844Z,36.10
2018-09-18T12:43:10.124Z,36.40
2018-09-18T12:46:14.036Z,36.02
2018-09-18T12:49:17.586Z,36.21
2018-09-18T12:52:21.059Z,36.02
2018-09-18T12:55:24.740Z,35.30
2018-09-18T12:58:28.941Z,35.26
2018-09-18T13:01:32.488Z,35.22
2018-09-18T13:04:36.013Z,35.34
2018-09-18T13:07:39.670Z,35.44
2018-09-18T13:10:43.659Z,35.44
2018-09-18T13:13:47.220Z,35.54
2018-09-18T13:16:50.709Z,35.66
2018-09-18T13:19:54.318Z,35.86
2018-09-18T13:22:57.808Z,35.68
2018-09-18T13:26:01.305Z,36.17
2018-09-18T13:29:04.892Z,35.88
2018-09-18T13:32:08.515Z,35.96
2018-09-18T13:35:12.180Z,35.38
2018-09-18T13:38:15.639Z,35.43
2018-09-18T13:41:20.132Z,35.29
2018-09-18T13:44:23.653Z,34.99
2018-09-18T13:47:27.242Z,35.18
2018-09-18T13:50:30.747Z,34.65
2018-09-18T13:53:34.220Z,34.97
2018-09-18T13:56:37.744Z,34.59
2018-09-18T13:59:41.249Z,34.53
2018-09-18T14:02:44.655Z,34.75
2018-09-18T14:05:48.501Z,34.46
2018-09-18T14:08:52.820Z,34.33
2018-09-18T14:11:56.709Z,34.13
2018-09-18T14:15:00.320Z,34.17
2018-09-18T14:18:03.674Z,34.10
2018-09-18T14:21:08.577Z,34.25
2018-09-18T14:24:12.039Z,34.58
2018-09-18T14:27:16.219Z,34.96
2018-09-18T14:30:19.804Z,35.43
2018-09-18T14:33:23.546Z,34.95
2018-09-18T14:36:26.990Z,35.43
2018-09-18T14:39:30.825Z,36.18
2018-09-18T14:42:34.752Z,35.96
2018-09-18T14:45:38.276Z,36.26
2018-09-18T14:48:41.999Z,36.70
2018-09-18T14:51:45.607Z,36.81
2018-09-18T14:54:49.030Z,37.39
2018-09-18T14:57:52.651Z,37.74
2018-09-18T15:00:56.229Z,37.78
2018-09-18T15:03:59.729Z,38.06
2018-09-18T15:07:09.160Z,37.79
2018-09-18T15:10:12.695Z,37.14
2018-09-18T15:13:16.359Z,36.86
2018-09-18T15:16:19.771Z,37.27
2018-09-18T15:19:23.359Z,37.62
2018-09-18T15:22:26.975Z,37.61
2018-09-18T15:25:31.150Z,37.62
2018-09-18T15:28:35.224Z,36.68
2018-09-18T15:31:38.611Z,36.51
2018-09-18T15:34:42.595Z,36.35
2018-09-18T15:37:46.165Z,36.24
2018-09-18T15:40:49.902Z,36.69
2018-09-18T15:43:53.407Z,36.43
2018-09-18T15:46:56.885Z,36.88
2018-09-18T15:50:00.504Z,37.39
2018-09-18T15:53:03.949Z,37.55
2018-09-18T15:56:07.371Z,37.57
2018-09-18T15:59:10.928Z,37.71
2018-09-18T16:02:14.364Z,37.23
2018-09-18T16:05:18.576Z,36.83
2018-09-18T16:08:22.106Z,36.65
2018-09-18T16:11:25.599Z,36.79
2018-09-18T16:14:29.167Z,37.06
2018-09-18T16:17:32.486Z,36.91
2018-09-18T16:20:36.006Z,37.06
2018-09-18T16:23:39.526Z,37.11
2018-09-18T16:26:43.167Z,36.94
2018-09-18T16:29:46.669Z,37.09
2018-09-18T16:32:50.468Z,37.42
2018-09-18T16:35:53.980Z,37.73
2018-09-18T16:38:57.513Z,38.06
2018-09-18T16:42:00.968Z,38.42
2018-09-18T16:45:05.480Z,38.62
2018-09-18T16:48:08.977Z,38.92
2018-09-18T16:51:12.348Z,39.17
2018-09-18T16:54:15.801Z,39.75
2018-09-18T16:57:19.335Z,39.89
2018-09-18T17:00:22.888Z,39.75
2018-09-18T17:03:26.433Z,40.47
2018-09-18T17:06:29.855Z,40.85
2018-09-18T17:09:33.284Z,40.64
2018-09-18T17:12:36.787Z,40.76
2018-09-18T17:15:42.487Z,41.03
2018-09-18T17:18:46.591Z,41.17
2018-09-18T17:21:50.067Z,41.70
2018-09-18T17:24:53.894Z,41.78
2018-09-18T17:27:57.429Z,42.32
2018-09-18T17:31:00.830Z,42.40
2018-09-18T17:34:04.677Z,42.56
2018-09-18T17:37:08.136Z,42.73
2018-09-18T17:40:11.646Z,42.86
2018-09-18T17:43:15.106Z,43.15
2018-09-18T17:46:18.550Z,43.71
2018-09-18T17:49:22.153Z,43.96
2018-09-18T17:52:25.718Z,44.24
2018-09-18T17:55:29.212Z,44.18
2018-09-18T17:58:33.230Z,44.41
2018-09-18T18:01:37.254Z,44.67
2018-09-18T18:04:40.781Z,44.81
2018-09-18T18:07:44.214Z,45.25
2018-09-18T18:10:48.824Z,45.29
2018-09-18T18:13:52.432Z,45.56
2018-09-18T18:16:55.942Z,45.49
2018-09-18T18:20:00.058Z,45.98
2018-09-18T18:23:03.693Z,45.94
2018-09-18T18:26:07.204Z,46.46
2018-09-18T18:29:10.746Z,46.49
2018-09-18T18:32:14.329Z,47.06
2018-09-18T18:35:18.085Z,46.89
2018-09-18T18:38:23.754Z,46.99
2018-09-18T18:41:27.361Z,47.01
2018-09-18T18:44:30.827Z,47.02
2018-09-18T18:47:34.374Z,47.50
2018-09-18T18:50:38.152Z,48.15
2018-09-18T18:53:41.769Z,48.30
2018-09-18T18:56:45.296Z,48.38
2018-09-18T18:59:48.855Z,48.59
2018-09-18T19:02:52.369Z,49.15
2018-09-18T19:05:55.855Z,49.29
2018-09-18T19:08:59.498Z,49.38
2018-09-18T19:12:03.068Z,49.39
2018-09-18T19:15:06.647Z,49.58
2018-09-18T19:18:10.234Z,49.81
2018-09-18T19:21:13.747Z,49.89
2018-09-18T19:24:17.262Z,50.03
2018-09-18T19:27:21.596Z,50.11
2018-09-18T19:30:25.123Z,50.12
2018-09-18T19:33:28.679Z,50.32
2018-09-18T19:36:32.334Z,49.95
2018-09-18T19:39:36.713Z,50.80
2018-09-18T19:42:40.475Z,50.59
2018-09-18T19:45:44.624Z,51.07
2018-09-18T19:48:48.067Z,51.43
2018-09-18T19:51:51.625Z,51.53
2018-09-18T19:54:55.081Z,51.70
2018-09-18T19:57:58.590Z,52.55
2018-09-18T20:01:02.070Z,52.50
2018-09-18T20:04:05.604Z,52.37
2018-09-18T20:07:09.076Z,52.34
2018-09-18T20:10:14.070Z,52.48
2018-09-18T20:13:17.605Z,52.14
2018-09-18T20:16:21.318Z,52.15
2018-09-18T20:19:25.703Z,51.92
2018-09-18T20:22:29.242Z,51.49
2018-09-18T20:25:32.762Z,51.60
2018-09-18T20:28:36.288Z,51.37
2018-09-18T20:31:39.775Z,51.45
2018-09-18T20:34:43.239Z,51.01
2018-09-18T20:37:46.666Z,51.11
2018-09-18T20:40:50.224Z,51.17
2018-09-18T20:43:53.746Z,50.80
2018-09-18T20:46:57.936Z,50.66
2018-09-18T20:50:01.399Z,50.89
2018-09-18T20:53:04.913Z,50.73
2018-09-18T20:56:08.447Z,51.03
2018-09-18T20:59:11.885Z,51.04
2018-09-18T21:02:15.463Z,51.08
2018-09-18T21:05:18.792Z,50.84
2018-09-18T21:08:23.597Z,51.06
2018-09-18T21:11:27.570Z,51.26
2018-09-18T21:14:31.976Z,51.48
2018-09-18T21:17:35.557Z,51.56
2018-09-18T21:20:39.015Z,51.55
2018-09-18T21:23:42.476Z,52.19
2018-09-18T21:26:46.035Z,51.64
2018-09-18T21:29:49.562Z,52.22
2018-09-18T21:32:52.973Z,51.56
2018-09-18T21:35:56.677Z,52.05
2018-09-18T21:39:00.114Z,52.36
2018-09-18T21:42:03.609Z,52.75
2018-09-18T21:45:07.254Z,52.66
2018-09-18T21:48:11.541Z,52.88
2018-09-18T21:51:16.036Z,53.01
2018-09-18T21:54:19.536Z,52.68
2018-09-18T21:57:22.938Z,53.34
2018-09-18T22:00:26.373Z,53.83
2018-09-18T22:03:30.261Z,53.81
2018-09-18T22:06:34.777Z,53.57
2018-09-18T22:09:38.189Z,53.96
2018-09-18T22:12:42.088Z,54.39
2018-09-18T22:15:45.481Z,54.74
2018-09-18T22:18:48.905Z,54.37
2018-09-18T22:21:52.756Z,55.00
2018-09-18T22:24:56.476Z,55.37
2018-09-18T22:28:00.003Z,55.57
2018-09-18T22:31:03.453Z,54.91
2018-09-18T22:34:07.255Z,55.73
2018-09-18T22:37:10.733Z,56.07
2018-09-18T22:40:14.141Z,55.87
2018-09-18T22:43:17.508Z,56.49
2018-09-18T22:46:20.904Z,56.37
2018-09-18T22:49:24.317Z,56.02
2018-09-18T22:52:27.746Z,56.00
2018-09-18T22:55:31.130Z,56.25
2018-09-18T22:58:34.607Z,55.79
2018-09-18T23:01:38.324Z,56.13
2018-09-18T23:04:41.742Z,56.08
2018-09-18T23:07:45.130Z,55.81
2018-09-18T23:10:48.994Z,55.74
2018-09-18T23:13:52.851Z,55.95
2018-09-18T23:16:56.614Z,55.93
2018-09-18T23:20:00.069Z,55.85
2018-09-18T23:23:03.835Z,56.28
2018-09-18T23:26:07.858Z,56.28
2018-09-18T23:29:11.469Z,56.59
2018-09-18T23:32:15.087Z,56.73
2018-09-18T23:35:18.681Z,56.94
2018-09-18T23:38:22.479Z,57.08
2018-09-18T23:41:26.018Z,57.10
2018-09-18T23:44:29.742Z,57.16
2018-09-18T23:47:33.332Z,56.26
2018-09-18T23:50:37.050Z,56.80
2018-09-18T23:53:41.455Z,57.19
2018-09-18T23:56:44.951Z,57.19
2018-09-18T23:59:48.457Z,56.97
